Time;durP1;ratioP1;P1;durP2;ratioP2;P2;SDS_P1;SDS_P2;PMS_P1;PMS_P2;Temp;Humidity;BMP_temperature;BMP_pressure;BME280_temperature;BME280_humidity;BME280_pressure;Samples;Min_cycle;Max_cycle;Signal;HPM_P1;HPM_P2
2022/12/12 15:32:07;;;;;;;5.75;2.83;;;16.70;86.20;;;;;;5052362;27;1930313;-87
2022/12/12 15:34:40;;;;;;;3.63;2.33;;;16.60;86.80;;;;;;5068018;28;20035;-88
2022/12/12 15:37:38;;;;;;;4.68;2.33;;;16.70;86.80;;;;;;5053331;28;20092;-86
2022/12/12 15:40:09;;;;;;;3.63;2.15;;;16.60;86.70;;;;;;4973478;28;20039;-88
2022/12/12 15:42:47;;;;;;;3.05;2.15;;;16.60;86.80;;;;;;4989610;28;20035;-87
2022/12/12 15:45:23;;;;;;;5.13;2.88;;;16.60;86.80;;;;;;4989377;28;20027;-87
2022/12/12 15:47:53;;;;;;;3.20;2.13;;;16.60;86.80;;;;;;4989712;28;20023;-87
2022/12/12 15:50:25;;;;;;;6.38;2.40;;;16.60;86.70;;;;;;4989103;28;20499;-88
2022/12/12 15:53:04;;;;;;;3.17;2.13;;;16.70;86.60;;;;;;4989709;28;20043;-88
2022/12/12 15:55:31;;;;;;;5.00;2.60;;;16.60;86.60;;;;;;4989431;28;20023;-88
2022/12/12 15:57:57;;;;;;;4.05;2.10;;;16.70;87.40;;;;;;4973139;28;20050;-84
2022/12/12 16:00:35;;;;;;;3.00;2.03;;;16.60;86.60;;;;;;4973149;28;20026;-87
2022/12/12 16:03:03;;;;;;;3.28;2.25;;;16.60;86.60;;;;;;4989494;28;20031;-88
2022/12/12 16:05:38;;;;;;;4.45;2.40;;;16.60;86.60;;;;;;4988877;28;20485;-88
2022/12/12 16:08:32;;;;;;;3.53;2.30;;;16.60;86.40;;;;;;4989346;28;20027;-86
2022/12/12 16:11:21;;;;;;;4.45;2.38;;;16.60;86.20;;;;;;4987936;28;20034;-87
2022/12/12 16:13:47;;;;;;;3.85;2.33;;;16.60;86.00;;;;;;4988689;28;20187;-87
2022/12/12 16:16:38;;;;;;;3.08;2.25;;;16.60;85.90;;;;;;5044946;28;20045;-89
2022/12/12 16:19:13;;;;;;;3.72;2.30;;;16.60;85.60;;;;;;5052709;28;20116;-87
2022/12/12 16:21:41;;;;;;;3.10;2.15;;;16.60;85.50;;;;;;5070181;28;20020;-87
2022/12/12 16:24:19;;;;;;;4.43;2.72;;;16.60;85.30;;;;;;5070076;28;20055;-87
2022/12/12 16:26:45;;;;;;;3.85;2.50;;;16.60;85.10;;;;;;5052852;28;20048;-87
2022/12/12 16:29:10;;;;;;;3.80;2.28;;;16.60;85.10;;;;;;5052044;28;20091;-87
2022/12/12 16:31:36;;;;;;;4.00;2.08;;;16.60;85.00;;;;;;5069880;28;20083;-87
2022/12/12 16:34:03;;;;;;;4.72;2.17;;;16.60;85.10;;;;;;5051917;28;20012;-87
2022/12/12 16:36:28;;;;;;;2.67;2.03;;;16.60;85.10;;;;;;5069973;28;20021;-86
2022/12/12 16:38:54;;;;;;;4.57;2.30;;;16.60;85.10;;;;;;5049336;28;20478;-87
2022/12/12 16:41:19;;;;;;;4.13;2.30;;;16.50;85.00;;;;;;5049869;28;20502;-87
2022/12/12 16:43:45;;;;;;;4.00;2.38;;;16.50;85.00;;;;;;5038397;28;20056;-87
2022/12/12 16:46:22;;;;;;;3.97;2.08;;;16.50;85.10;;;;;;5051894;28;20116;-88
2022/12/12 16:48:48;;;;;;;4.90;2.42;;;16.40;85.10;;;;;;5034376;28;20534;-88
2022/12/12 16:51:16;;;;;;;4.07;2.33;;;16.40;85.10;;;;;;5046973;28;20047;-87
2022/12/12 16:53:42;;;;;;;3.65;2.10;;;16.40;85.20;;;;;;5045635;28;20036;-87
2022/12/12 16:56:10;;;;;;;3.08;2.05;;;16.40;85.20;;;;;;5056228;28;20021;-88
2022/12/12 16:58:36;;;;;;;3.80;2.30;;;16.40;85.20;;;;;;5038132;28;20017;-88
2022/12/12 17:01:02;;;;;;;2.38;2.10;;;16.40;85.20;;;;;;5056126;28;20096;-87
2022/12/12 17:03:29;;;;;;;4.07;2.78;;;16.30;85.20;;;;;;5042082;28;20024;-88
2022/12/12 17:05:54;;;;;;;3.42;2.17;;;16.30;85.20;;;;;;5038347;28;20029;-87
2022/12/12 17:08:20;;;;;;;2.95;2.30;;;16.30;85.30;;;;;;5055749;28;20025;-87
2022/12/12 17:10:48;;;;;;;3.45;2.40;;;16.30;85.40;;;;;;5055807;28;20105;-87
2022/12/12 17:13:16;;;;;;;4.90;2.35;;;16.20;85.30;;;;;;5038306;28;20027;-87
2022/12/12 17:15:42;;;;;;;3.72;2.30;;;16.20;85.40;;;;;;5037914;28;20021;-87
2022/12/12 17:18:07;;;;;;;4.63;2.63;;;16.20;85.50;;;;;;5037776;28;20032;-87
2022/12/12 17:20:33;;;;;;;4.20;2.38;;;16.20;85.50;;;;;;5055653;28;20037;-87
2022/12/12 17:22:59;;;;;;;4.25;2.28;;;16.20;85.50;;;;;;5037889;28;20032;-87
2022/12/12 17:25:24;;;;;;;3.35;2.30;;;16.10;85.50;;;;;;5037603;28;20021;-87
2022/12/12 17:27:51;;;;;;;4.40;2.40;;;16.10;85.50;;;;;;5038090;28;20029;-87
2022/12/12 17:30:18;;;;;;;3.17;2.17;;;16.10;85.60;;;;;;5055136;28;20386;-87
2022/12/12 17:32:43;;;;;;;4.47;2.33;;;16.10;85.60;;;;;;5037333;28;20025;-87
2022/12/12 17:35:09;;;;;;;4.50;2.75;;;16.10;85.70;;;;;;5037352;28;20025;-87
2022/12/12 17:37:36;;;;;;;3.47;2.50;;;16.00;85.70;;;;;;5037521;28;20152;-87
2022/12/12 17:40:03;;;;;;;3.97;2.50;;;16.00;85.70;;;;;;5037225;28;20032;-88
2022/12/12 17:42:30;;;;;;;3.97;2.45;;;16.00;85.70;;;;;;5044277;28;20039;-87
2022/12/12 17:44:56;;;;;;;2.22;1.95;;;16.00;85.80;;;;;;5050633;28;20029;-87
2022/12/12 17:47:22;;;;;;;4.45;2.45;;;16.00;85.90;;;;;;5037342;28;20070;-87
2022/12/12 17:49:47;;;;;;;4.50;2.50;;;15.90;85.90;;;;;;5054979;28;20111;-86
2022/12/12 17:52:13;;;;;;;2.35;1.92;;;15.90;85.90;;;;;;5036913;28;20032;-87
2022/12/12 17:54:38;;;;;;;4.78;2.30;;;15.90;85.90;;;;;;5036527;28;20017;-87
2022/12/12 17:57:04;;;;;;;3.22;2.28;;;15.90;86.10;;;;;;5054881;28;20482;-87
2022/12/12 17:59:29;;;;;;;4.68;2.55;;;15.80;86.00;;;;;;5045138;28;20025;-87
2022/12/12 18:01:55;;;;;;;3.65;2.33;;;15.80;86.10;;;;;;5037171;28;20032;-88
2022/12/12 18:04:22;;;;;;;3.85;2.63;;;15.80;86.20;;;;;;5037109;28;20120;-87
2022/12/12 18:06:48;;;;;;;4.40;2.22;;;15.80;86.20;;;;;;5037061;28;20082;-87
2022/12/12 18:09:15;;;;;;;3.33;2.30;;;15.80;86.20;;;;;;5036683;28;20422;-87
2022/12/12 18:11:42;;;;;;;6.10;2.78;;;15.80;86.20;;;;;;5036495;28;20082;-87
2022/12/12 18:14:17;;;;;;;3.67;2.38;;;15.80;86.30;;;;;;5036975;28;20085;-87
2022/12/12 18:16:52;;;;;;;6.53;2.08;;;15.80;86.30;;;;;;5037305;28;20367;-87
2022/12/12 18:19:22;;;;;;;4.50;2.45;;;15.70;86.30;;;;;;5036655;28;20033;-87
2022/12/12 18:21:48;;;;;;;6.90;2.28;;;15.70;86.40;;;;;;5036913;28;20180;-87
2022/12/12 18:24:15;;;;;;;3.67;2.42;;;15.70;86.40;;;;;;5037303;28;20037;-87
2022/12/12 18:26:41;;;;;;;6.03;1.95;;;15.70;86.40;;;;;;5037209;28;20035;-87
2022/12/12 18:29:09;;;;;;;4.05;2.80;;;15.70;86.50;;;;;;5036830;28;20028;-88
2022/12/12 18:31:35;;;;;;;5.65;3.15;;;15.70;86.50;;;;;;5036179;28;20025;-88
2022/12/12 18:34:01;;;;;;;6.13;2.85;;;15.60;86.50;;;;;;5036901;28;20027;-87
2022/12/12 18:36:28;;;;;;;4.32;2.55;;;15.60;86.50;;;;;;5036493;28;20017;-87
2022/12/12 18:38:58;;;;;;;4.97;2.63;;;15.60;86.60;;;;;;5036378;28;20021;-88
2022/12/12 18:41:26;;;;;;;5.85;2.97;;;15.60;86.50;;;;;;5054706;28;20024;-87
2022/12/12 18:43:52;;;;;;;6.38;3.20;;;15.60;86.50;;;;;;5030648;28;20406;-86
2022/12/12 18:46:20;;;;;;;4.53;2.83;;;15.60;86.50;;;;;;5051793;28;20025;-86
2022/12/12 18:48:47;;;;;;;4.80;2.60;;;15.50;86.30;;;;;;5036483;28;20025;-86
2022/12/12 18:51:15;;;;;;;5.75;2.90;;;15.50;86.30;;;;;;5035788;28;20079;-87
2022/12/12 18:53:41;;;;;;;7.25;3.35;;;15.50;86.40;;;;;;5036316;28;20036;-88
2022/12/12 18:56:12;;;;;;;5.10;3.13;;;15.50;86.20;;;;;;5036258;28;20036;-86
2022/12/12 18:58:38;;;;;;;4.50;2.92;;;15.60;86.10;;;;;;5036155;28;20025;-88
2022/12/12 19:01:09;;;;;;;7.20;3.60;;;15.60;86.00;;;;;;5036343;28;20668;-87
2022/12/12 19:03:36;;;;;;;6.03;3.50;;;15.60;85.90;;;;;;5036080;28;20393;-87
2022/12/12 19:06:13;;;;;;;6.15;3.25;;;15.60;85.90;;;;;;5036104;28;20033;-87
2022/12/12 19:08:39;;;;;;;5.70;3.25;;;15.60;86.60;;;;;;5019882;28;20048;-87
2022/12/12 19:11:06;;;;;;;6.00;3.80;;;15.60;85.90;;;;;;5053331;28;20029;-86
2022/12/12 19:13:32;;;;;;;5.25;2.95;;;15.60;85.90;;;;;;5053835;28;20490;-87
2022/12/12 19:16:10;;;;;;;5.40;3.10;;;15.60;85.90;;;;;;5035810;28;20063;-88
2022/12/12 19:18:36;;;;;;;4.85;3.15;;;15.50;85.80;;;;;;5035880;28;20013;-88
2022/12/12 19:21:07;;;;;;;7.30;3.85;;;15.60;85.90;;;;;;5035666;28;20028;-88
2022/12/12 19:23:33;;;;;;;5.68;3.58;;;15.50;85.80;;;;;;5053856;28;20595;-87
2022/12/12 19:26:07;;;;;;;6.97;4.38;;;15.50;85.90;;;;;;5036248;28;20059;-88
2022/12/12 19:28:33;;;;;;;7.10;3.72;;;15.50;86.00;;;;;;5028491;28;20061;-87
2022/12/12 19:30:59;;;;;;;6.90;3.85;;;15.50;86.10;;;;;;5045583;28;20082;-87
2022/12/12 19:33:25;;;;;;;11.57;4.03;;;15.40;85.90;;;;;;5035529;28;20021;-87
2022/12/12 19:35:51;;;;;;;5.53;3.85;;;15.40;86.00;;;;;;5034135;28;20024;-87
2022/12/12 19:38:16;;;;;;;5.20;3.58;;;15.50;86.00;;;;;;5044463;28;20026;-85
2022/12/12 19:40:42;;;;;;;8.48;3.53;;;15.40;86.00;;;;;;5031334;28;20025;-87
2022/12/12 19:43:08;;;;;;;6.43;3.75;;;15.40;86.10;;;;;;5030920;28;20070;-87
2022/12/12 19:45:33;;;;;;;5.53;3.20;;;15.40;86.10;;;;;;5024568;28;20570;-87
2022/12/12 19:47:59;;;;;;;7.43;3.97;;;15.40;86.10;;;;;;5047365;28;20413;-89
2022/12/12 19:50:24;;;;;;;5.75;3.72;;;15.40;86.10;;;;;;5035075;28;20067;-88
2022/12/12 19:52:50;;;;;;;6.40;3.67;;;15.40;86.10;;;;;;5030911;28;20064;-87
2022/12/12 19:55:16;;;;;;;8.85;3.90;;;15.40;86.10;;;;;;5032060;28;20028;-87
2022/12/12 19:57:41;;;;;;;5.13;3.38;;;15.30;86.00;;;;;;5035023;28;20525;-90
2022/12/12 20:00:08;;;;;;;6.75;3.92;;;15.30;86.00;;;;;;5034363;28;20105;-87
2022/12/12 20:02:35;;;;;;;9.23;4.07;;;15.20;85.90;;;;;;5035529;28;20025;-87
2022/12/12 20:05:01;;;;;;;7.15;4.25;;;15.30;85.90;;;;;;5053707;28;20390;-88
2022/12/12 20:07:26;;;;;;;9.43;4.57;;;15.30;86.00;;;;;;5029019;28;20029;-87
2022/12/12 20:09:52;;;;;;;7.30;4.00;;;15.20;86.00;;;;;;5032985;28;20040;-87
2022/12/12 20:12:17;;;;;;;8.20;4.72;;;15.20;86.00;;;;;;5032931;28;20538;-87
2022/12/12 20:14:43;;;;;;;10.52;4.85;;;15.30;86.00;;;;;;5035451;28;20557;-88
2022/12/12 20:17:09;;;;;;;10.02;4.70;;;15.30;85.90;;;;;;5036276;28;20112;-86
2022/12/12 20:19:35;;;;;;;10.90;4.78;;;15.30;85.80;;;;;;5058400;28;20064;-87
2022/12/12 20:22:00;;;;;;;8.23;4.70;;;15.30;85.70;;;;;;5038993;28;20033;-87
2022/12/12 20:24:27;;;;;;;16.60;4.55;;;15.30;85.70;;;;;;5039011;28;20446;-86
2022/12/12 20:26:54;;;;;;;11.30;4.88;;;15.30;85.70;;;;;;5056825;28;20027;-87
2022/12/12 20:29:21;;;;;;;9.88;5.20;;;15.30;85.50;;;;;;5039247;28;20021;-87
2022/12/12 20:31:49;;;;;;;9.52;4.90;;;15.30;85.50;;;;;;5037757;28;20021;-86
2022/12/12 20:34:17;;;;;;;8.20;4.68;;;15.30;85.70;;;;;;5037189;28;20108;-87
2022/12/12 20:36:45;;;;;;;13.35;4.35;;;15.30;85.70;;;;;;5037375;28;20028;-87
2022/12/12 20:39:18;;;;;;;10.60;4.55;;;15.30;85.50;;;;;;5053162;28;20028;-86
2022/12/12 20:41:44;;;;;;;29.95;5.10;;;15.30;85.40;;;;;;5028140;28;20021;-87
2022/12/12 20:44:12;;;;;;;13.15;4.90;;;15.30;85.60;;;;;;5034767;28;20120;-88
2022/12/12 20:46:39;;;;;;;12.88;4.68;;;15.30;85.70;;;;;;5055445;28;20474;-87
2022/12/12 20:49:11;;;;;;;15.65;4.35;;;15.30;85.80;;;;;;5037377;28;20037;-88
2022/12/12 20:51:36;;;;;;;9.95;4.70;;;15.30;85.90;;;;;;5037391;28;20041;-89
2022/12/12 20:54:05;;;;;;;8.68;4.47;;;15.30;86.20;;;;;;5037260;28;20096;-88
2022/12/12 20:56:31;;;;;;;12.57;4.13;;;15.20;86.40;;;;;;5034740;28;20025;-89
2022/12/12 20:58:59;;;;;;;15.50;4.50;;;15.10;86.50;;;;;;5031868;28;20401;-88
2022/12/12 21:01:31;;;;;;;14.85;4.72;;;15.10;86.70;;;;;;5028030;28;20593;-88
2022/12/12 21:03:58;;;;;;;9.45;4.03;;;15.10;86.90;;;;;;5032454;28;20025;-89
2022/12/12 21:06:27;;;;;;;10.05;4.57;;;15.00;86.90;;;;;;5035493;28;20047;-88
2022/12/12 21:08:53;;;;;;;14.73;5.45;;;15.00;87.10;;;;;;5033161;28;20029;-91
2022/12/12 21:11:21;;;;;;;15.40;5.13;;;15.00;87.20;;;;;;5036195;28;20094;-89
2022/12/12 21:13:49;;;;;;;13.13;5.25;;;14.90;88.00;;;;;;5037857;28;20184;-89
2022/12/12 21:16:23;;;;;;;8.25;4.50;;;14.90;87.40;;;;;;5034200;28;20063;-88
2022/12/12 21:18:52;;;;;;;9.43;5.13;;;14.90;87.50;;;;;;5030161;28;21225;-87
2022/12/12 21:21:18;;;;;;;12.57;5.18;;;14.90;87.50;;;;;;5036161;28;20032;-86
2022/12/12 21:23:44;;;;;;;7.10;4.10;;;14.90;87.60;;;;;;5035442;28;20394;-87
2022/12/12 21:26:13;;;;;;;10.02;4.68;;;14.90;87.70;;;;;;5034004;28;20029;-86
2022/12/12 21:28:39;;;;;;;13.35;4.55;;;14.90;87.70;;;;;;5036536;28;20025;-87
2022/12/12 21:31:06;;;;;;;12.90;4.85;;;14.90;87.70;;;;;;5036916;28;20163;-87
2022/12/12 21:33:34;;;;;;;11.23;4.45;;;14.90;87.80;;;;;;5053895;28;20592;-87
2022/12/12 21:36:08;;;;;;;11.85;4.53;;;14.90;87.90;;;;;;5036295;28;20025;-86
2022/12/12 21:38:35;;;;;;;11.73;4.63;;;14.90;87.90;;;;;;5036223;28;20021;-87
2022/12/12 21:41:09;;;;;;;16.15;4.28;;;14.90;87.90;;;;;;5027403;28;20036;-86
2022/12/12 21:43:35;;;;;;;10.25;4.22;;;14.90;88.00;;;;;;5036491;28;20059;-88
2022/12/12 21:46:06;;;;;;;10.35;4.70;;;14.90;88.10;;;;;;5033004;28;20026;-86
2022/12/12 21:48:31;;;;;;;;;;;14.90;88.00;;;;;;5035037;28;20033;-85
2022/12/12 21:51:02;;;;;;;10.63;3.97;;;14.90;88.10;;;;;;5054863;28;20423;-88
2022/12/12 21:53:34;;;;;;;11.45;4.82;;;14.90;88.10;;;;;;5053851;28;20069;-88
2022/12/12 21:56:03;;;;;;;14.45;4.55;;;14.90;88.10;;;;;;5053598;28;20096;-88
2022/12/12 21:58:30;;;;;;;9.20;4.47;;;14.90;88.20;;;;;;5035594;28;20017;-88
2022/12/12 22:01:06;;;;;;;16.42;4.82;;;14.90;88.10;;;;;;5035948;28;20025;-88
2022/12/12 22:03:31;;;;;;;20.98;4.88;;;14.80;88.10;;;;;;5036024;28;20021;-88
2022/12/12 22:05:57;;;;;;;13.48;4.70;;;14.80;88.20;;;;;;5053614;28;20028;-88
2022/12/12 22:08:22;;;;;;;16.27;4.13;;;14.80;88.30;;;;;;5035664;28;20087;-87
2022/12/12 22:10:48;;;;;;;14.82;3.97;;;14.80;88.30;;;;;;5035661;28;20031;-88
2022/12/12 22:13:13;;;;;;;14.60;4.93;;;14.70;88.30;;;;;;5035886;28;20025;-88
2022/12/12 22:15:39;;;;;;;17.45;4.97;;;14.70;88.50;;;;;;5035674;28;20017;-86
2022/12/12 22:18:04;;;;;;;19.40;5.05;;;14.70;88.60;;;;;;5035269;28;20017;-85
2022/12/12 22:20:34;;;;;;;15.40;4.28;;;14.70;88.70;;;;;;5035561;28;20059;-87
2022/12/12 22:23:00;;;;;;;11.93;3.67;;;14.70;88.70;;;;;;5053379;28;20063;-88
2022/12/12 22:25:27;;;;;;;15.43;4.82;;;14.70;88.70;;;;;;5041459;28;20067;-87
2022/12/12 22:27:53;;;;;;;12.90;3.88;;;14.70;88.90;;;;;;5053098;28;20029;-88
2022/12/12 22:30:18;;;;;;;15.13;4.47;;;14.70;88.90;;;;;;5034685;28;20029;-88
2022/12/12 22:32:44;;;;;;;14.75;4.07;;;14.70;89.00;;;;;;5035253;28;20031;-88
2022/12/12 22:35:09;;;;;;;8.30;3.50;;;14.70;89.10;;;;;;5035666;28;20025;-87
2022/12/12 22:37:35;;;;;;;11.77;4.50;;;14.70;89.10;;;;;;5040184;28;20017;-87
2022/12/12 22:40:00;;;;;;;16.85;4.68;;;14.70;89.10;;;;;;5037791;28;20458;-88
2022/12/12 22:42:27;;;;;;;12.27;3.85;;;14.70;89.10;;;;;;5053066;28;20020;-87
2022/12/12 22:44:52;;;;;;;11.48;3.50;;;14.70;89.10;;;;;;5053009;28;20524;-88
2022/12/12 22:47:18;;;;;;;7.82;3.95;;;14.70;89.10;;;;;;5034960;28;20021;-88
2022/12/12 22:49:44;;;;;;;9.65;3.90;;;14.70;89.10;;;;;;5034896;28;20394;-88
2022/12/12 22:52:09;;;;;;;10.43;3.60;;;14.70;89.10;;;;;;5034934;28;20080;-87
2022/12/12 22:54:35;;;;;;;11.40;3.63;;;14.70;89.00;;;;;;5034505;28;20041;-88
2022/12/12 22:57:01;;;;;;;10.70;3.75;;;14.70;89.00;;;;;;5035072;28;20025;-88
2022/12/12 22:59:26;;;;;;;9.93;3.58;;;14.70;89.00;;;;;;5026375;28;20028;-87
2022/12/12 23:01:52;;;;;;;8.60;3.45;;;14.70;89.10;;;;;;5034774;28;20107;-88
2022/12/12 23:04:18;;;;;;;11.40;3.85;;;14.70;89.10;;;;;;5034629;28;20025;-87
2022/12/12 23:06:43;;;;;;;8.65;3.72;;;14.70;89.10;;;;;;5034818;28;20032;-87
2022/12/12 23:09:18;;;;;;;13.35;3.67;;;14.70;89.20;;;;;;5034492;28;20044;-88
2022/12/12 23:11:44;;;;;;;7.70;4.03;;;14.60;89.10;;;;;;5034437;28;20390;-88
2022/12/12 23:14:13;;;;;;;9.43;3.45;;;14.60;89.20;;;;;;5022138;28;20079;-87
2022/12/12 23:16:40;;;;;;;10.15;4.47;;;14.60;89.30;;;;;;5014994;28;20163;-87
2022/12/12 23:19:06;;;;;;;10.13;3.92;;;14.60;89.40;;;;;;5015000;28;20419;-88
2022/12/12 23:21:34;;;;;;;8.50;3.33;;;14.60;89.50;;;;;;5046606;28;20021;-88
2022/12/12 23:23:59;;;;;;;10.95;3.35;;;14.60;89.50;;;;;;5052244;28;20112;-87
2022/12/12 23:26:28;;;;;;;5.55;3.17;;;14.60;89.60;;;;;;5049486;28;20140;-88
2022/12/12 23:28:55;;;;;;;8.50;3.38;;;14.60;89.60;;;;;;5039607;28;20498;-88
2022/12/12 23:31:29;;;;;;;8.27;3.60;;;14.60;89.60;;;;;;5034135;28;20040;-88
2022/12/12 23:33:58;;;;;;;10.05;3.17;;;14.60;89.60;;;;;;5034653;28;20051;-87
2022/12/12 23:36:24;;;;;;;10.35;3.42;;;14.60;89.60;;;;;;5034391;28;20137;-86
2022/12/12 23:39:01;;;;;;;13.32;3.20;;;14.60;89.60;;;;;;5034193;28;20156;-87
2022/12/12 23:41:27;;;;;;;7.63;3.15;;;14.60;89.70;;;;;;5014773;28;20131;-88
2022/12/12 23:43:54;;;;;;;11.45;3.70;;;14.60;89.70;;;;;;5032291;28;20049;-88
2022/12/12 23:46:30;;;;;;;8.30;3.78;;;14.60;89.80;;;;;;5014265;28;20057;-87
2022/12/12 23:49:06;;;;;;;15.10;4.00;;;14.60;89.70;;;;;;5031147;28;20529;-88
2022/12/12 23:51:43;;;;;;;5.40;3.20;;;14.60;89.70;;;;;;5034403;28;20478;-87
2022/12/12 23:54:15;;;;;;;9.10;3.33;;;14.60;89.70;;;;;;5038518;28;20032;-88
2022/12/12 23:56:41;;;;;;;15.88;3.13;;;14.60;89.70;;;;;;5056296;28;20032;-88
2022/12/12 23:59:07;;;;;;;14.20;3.40;;;14.60;89.70;;;;;;5055870;28;20021;-88
